Terminal Aerodrome Forecast
Issued by NWS

Home | Current Version | Previous Version | Graphics & Text | Print | Product List | Glossary On
Versions: 1 2 3 4 5 6 7 8 9 10 11 12 13 14 15 16 17
000
FTUS45 KGGW 010919 AAA
TAFOLF
TAF AMD
KOLF 010919Z 0109/0206 00000KT P6SM OVC010
     FM011400 00000KT P6SM OVC040=

USA.gov is the U.S. government's official web portal to all federal, state and local government web resources and services.